createdAt,value
2023-02-08T00:02:21.450Z,5.60
2023-02-08T00:05:27.556Z,25.50
2023-02-08T00:08:34.353Z,24.90
2023-02-08T00:11:42.472Z,16.80
2023-02-08T00:14:48.670Z,6.17
2023-02-08T00:17:55.063Z,19.27
2023-02-08T00:21:01.753Z,18.10
2023-02-08T00:24:08.549Z,22.77
2023-02-08T00:27:16.405Z,22.67
2023-02-08T00:30:22.925Z,10.47
2023-02-08T00:33:29.377Z,8.13
2023-02-08T00:36:35.970Z,8.53
2023-02-08T00:39:42.030Z,10.60
2023-02-08T00:42:50.038Z,5.50
2023-02-08T00:45:56.798Z,4.30
2023-02-08T00:49:04.035Z,17.03
2023-02-08T00:52:10.342Z,13.20
2023-02-08T00:55:17.087Z,7.63
2023-02-08T00:58:25.296Z,13.07
2023-02-08T01:01:31.374Z,13.07
2023-02-08T01:04:38.000Z,13.17
2023-02-08T01:07:43.920Z,16.53
2023-02-08T01:10:50.196Z,11.07
2023-02-08T01:13:58.637Z,6.93
2023-02-08T01:17:05.033Z,12.27
2023-02-08T01:20:12.793Z,12.80
2023-02-08T01:23:19.103Z,11.10
2023-02-08T01:26:26.755Z,13.17
2023-02-08T01:29:34.705Z,14.50
2023-02-08T01:32:41.134Z,8.27
2023-02-08T01:35:50.982Z,7.83
2023-02-08T01:38:57.498Z,12.13
2023-02-08T01:42:03.679Z,12.67
2023-02-08T01:45:30.261Z,8.13
2023-02-08T01:48:40.092Z,20.93
2023-02-08T01:51:51.381Z,11.73
2023-02-08T01:55:01.544Z,27.10
2023-02-08T01:58:12.439Z,5.40
2023-02-08T02:01:20.040Z,14.07
2023-02-08T02:04:28.503Z,37.40
2023-02-08T02:07:35.039Z,18.50
2023-02-08T02:10:43.560Z,20.23
2023-02-08T02:13:51.187Z,19.40
2023-02-08T02:17:00.962Z,12.53
2023-02-08T02:20:15.854Z,6.57
2023-02-08T02:23:58.398Z,12.80
2023-02-08T02:27:33.043Z,22.60
2023-02-08T02:31:21.806Z,16.53
2023-02-08T02:34:39.710Z,10.27
2023-02-08T02:37:56.303Z,6.87
2023-02-08T02:41:11.601Z,15.40
2023-02-08T02:44:25.080Z,6.40
2023-02-08T02:47:38.783Z,6.83
2023-02-08T02:50:49.706Z,7.47
2023-02-08T02:54:02.288Z,5.73
2023-02-08T02:57:12.506Z,10.33
2023-02-08T03:00:24.724Z,14.47
2023-02-08T03:03:34.444Z,18.50
2023-02-08T03:06:56.479Z,12.57
2023-02-08T03:10:14.700Z,20.20
2023-02-08T03:13:32.671Z,20.63
2023-02-08T03:16:56.920Z,30.80
2023-02-08T03:20:08.768Z,15.67
2023-02-08T03:23:23.900Z,11.90
2023-02-08T03:26:37.540Z,18.60
2023-02-08T03:29:51.246Z,24.37
2023-02-08T03:33:02.803Z,15.40
2023-02-08T03:36:16.109Z,14.23
2023-02-08T03:39:27.935Z,16.17
2023-02-08T03:42:36.575Z,21.13
2023-02-08T03:45:47.687Z,20.77
2023-02-08T03:49:00.179Z,28.37
2023-02-08T03:52:09.898Z,9.67
2023-02-08T03:55:21.614Z,10.93
2023-02-08T03:58:33.751Z,11.67
2023-02-08T04:01:45.604Z,19.83
2023-02-08T04:04:53.829Z,8.67
2023-02-08T04:08:00.128Z,7.33
2023-02-08T04:11:07.718Z,11.67
2023-02-08T04:14:14.215Z,5.43
2023-02-08T04:17:20.194Z,4.87
2023-02-08T04:20:26.363Z,9.13
2023-02-08T04:23:32.787Z,5.97
2023-02-08T04:26:40.450Z,9.93
2023-02-08T04:29:46.875Z,6.77
2023-02-08T04:32:53.424Z,18.03
2023-02-08T04:35:59.836Z,4.80
2023-02-08T04:39:06.218Z,6.77
2023-02-08T04:42:14.092Z,12.40
2023-02-08T04:45:20.323Z,10.83
2023-02-08T04:48:26.670Z,5.93
2023-02-08T04:51:32.868Z,11.77
2023-02-08T04:54:40.879Z,8.27
2023-02-08T04:57:48.536Z,18.07
2023-02-08T05:00:55.321Z,5.97
2023-02-08T05:04:01.570Z,11.47
2023-02-08T05:07:07.915Z,7.30
2023-02-08T05:10:14.255Z,7.13
2023-02-08T05:13:22.189Z,13.77
2023-02-08T05:16:28.650Z,26.13
2023-02-08T05:19:34.789Z,9.93
2023-02-08T05:22:41.799Z,11.60
2023-02-08T05:25:47.809Z,43.30
2023-02-08T05:28:55.457Z,19.47
2023-02-08T05:32:01.726Z,17.63
2023-02-08T05:35:08.684Z,16.23
2023-02-08T05:38:14.778Z,21.30
2023-02-08T05:41:21.229Z,29.73
2023-02-08T05:44:29.168Z,23.60
2023-02-08T05:47:35.782Z,34.20
2023-02-08T05:50:42.575Z,40.90
2023-02-08T05:53:49.350Z,45.27
2023-02-08T05:56:55.555Z,31.53
2023-02-08T06:00:03.855Z,17.87
2023-02-08T06:03:10.169Z,63.50
2023-02-08T06:06:16.503Z,42.50
2023-02-08T06:09:23.250Z,34.87
2023-02-08T06:12:29.456Z,14.63
2023-02-08T06:15:37.322Z,34.93
2023-02-08T06:18:43.713Z,45.10
2023-02-08T06:21:50.037Z,34.87
2023-02-08T06:24:56.399Z,29.47
2023-02-08T06:28:03.267Z,27.83
2023-02-08T06:31:11.251Z,8.23
2023-02-08T06:34:17.158Z,20.17
2023-02-08T06:37:23.113Z,39.97
2023-02-08T06:40:29.543Z,7.70
2023-02-08T06:43:35.680Z,9.50
2023-02-08T06:46:43.169Z,11.37
2023-02-08T06:49:49.497Z,9.23
2023-02-08T06:52:55.817Z,9.73
2023-02-08T06:56:02.086Z,14.07
2023-02-08T06:59:08.367Z,12.03
2023-02-08T07:02:18.861Z,36.80
2023-02-08T07:05:25.356Z,13.33
2023-02-08T07:08:31.980Z,16.40
2023-02-08T07:11:38.281Z,7.43
2023-02-08T07:14:45.152Z,11.50
2023-02-08T07:17:52.816Z,19.40
2023-02-08T07:20:59.404Z,9.17
2023-02-08T07:24:05.444Z,12.17
2023-02-08T07:27:14.392Z,4.60
2023-02-08T07:30:20.762Z,7.50
2023-02-08T07:33:28.473Z,10.63
2023-02-08T07:36:35.843Z,12.00
2023-02-08T07:39:42.213Z,12.43
2023-02-08T07:42:48.621Z,8.50
2023-02-08T07:45:55.201Z,10.70
2023-02-08T07:49:03.240Z,18.07
2023-02-08T07:52:09.531Z,26.87
2023-02-08T07:55:17.298Z,26.00
2023-02-08T07:58:23.345Z,18.57
2023-02-08T08:01:29.797Z,17.80
2023-02-08T08:04:37.524Z,19.23
2023-02-08T08:07:43.768Z,17.87
2023-02-08T08:10:50.389Z,10.77
2023-02-08T08:13:56.760Z,12.93
2023-02-08T08:17:03.108Z,15.43
2023-02-08T08:20:12.718Z,17.43
2023-02-08T08:23:19.753Z,23.50
2023-02-08T08:26:25.998Z,18.03
2023-02-08T08:29:33.592Z,31.30
2023-02-08T08:32:39.821Z,26.13
2023-02-08T08:35:47.512Z,31.90
2023-02-08T08:38:54.121Z,24.97
2023-02-08T08:42:01.703Z,18.53
2023-02-08T08:45:09.465Z,21.83
2023-02-08T08:48:15.786Z,20.47
2023-02-08T08:51:23.426Z,13.43
2023-02-08T08:54:29.523Z,20.17
2023-02-08T08:57:35.536Z,24.27
2023-02-08T09:00:42.022Z,6.13
2023-02-08T09:03:48.516Z,15.27
2023-02-08T09:06:56.012Z,17.70
2023-02-08T09:10:02.209Z,5.57
2023-02-08T09:13:08.567Z,5.60
2023-02-08T09:16:17.490Z,12.80
2023-02-08T09:19:23.481Z,4.77
2023-02-08T09:22:31.466Z,11.90
2023-02-08T09:25:38.296Z,7.87
2023-02-08T09:28:44.261Z,4.10
2023-02-08T09:31:50.840Z,3.07
2023-02-08T09:34:57.908Z,3.30
2023-02-08T09:38:05.929Z,6.80
2023-02-08T09:41:29.653Z,6.93
2023-02-08T09:44:46.880Z,2.40
2023-02-08T09:48:01.555Z,4.10
2023-02-08T09:51:17.326Z,2.07
2023-02-08T09:54:31.427Z,4.00
2023-02-08T09:57:38.575Z,3.10
2023-02-08T10:00:50.824Z,1.83
2023-02-08T10:04:00.797Z,2.10
2023-02-08T10:07:07.286Z,3.17
2023-02-08T10:10:21.728Z,3.07
2023-02-08T10:13:55.792Z,2.47
2023-02-08T10:17:11.275Z,5.30
2023-02-08T10:20:38.418Z,1.63
2023-02-08T10:24:15.757Z,2.30
2023-02-08T10:27:29.720Z,5.00
2023-02-08T10:30:46.579Z,3.77
2023-02-08T10:34:00.689Z,2.20
2023-02-08T10:37:18.941Z,5.20
2023-02-08T10:40:32.773Z,2.10
2023-02-08T10:43:44.848Z,3.40
2023-02-08T10:46:57.770Z,3.97
2023-02-08T10:50:15.028Z,2.00
2023-02-08T10:53:21.587Z,5.10
2023-02-08T10:56:58.044Z,1.77
2023-02-08T11:00:12.786Z,2.70
2023-02-08T11:03:25.123Z,2.83
2023-02-08T11:06:36.430Z,4.90
2023-02-08T11:09:42.964Z,3.57
2023-02-08T11:12:57.098Z,18.33
2023-02-08T11:16:06.830Z,3.30
2023-02-08T11:19:22.993Z,2.67
2023-02-08T11:22:32.556Z,2.27
2023-02-08T11:25:43.934Z,2.27
2023-02-08T11:29:02.074Z,1.80
2023-02-08T11:32:19.297Z,6.70
2023-02-08T11:35:39.880Z,7.80
2023-02-08T11:38:49.594Z,4.20
2023-02-08T11:42:00.781Z,2.70
2023-02-08T11:45:10.064Z,8.37
2023-02-08T11:48:24.552Z,3.77
2023-02-08T11:51:35.640Z,12.80
2023-02-08T11:54:43.253Z,33.07
2023-02-08T11:57:54.997Z,23.20
2023-02-08T12:01:03.938Z,7.97
2023-02-08T12:04:13.874Z,10.67
2023-02-08T12:07:24.285Z,2.80
2023-02-08T12:10:56.268Z,4.50
2023-02-08T12:14:27.961Z,6.07
2023-02-08T12:18:07.661Z,16.23
2023-02-08T12:21:20.509Z,9.07
2023-02-08T12:24:34.198Z,13.90
2023-02-08T12:27:47.381Z,5.13
2023-02-08T12:31:04.513Z,11.77
2023-02-08T12:34:18.817Z,4.20
2023-02-08T12:37:55.091Z,4.87
2023-02-08T12:41:14.745Z,1.87
2023-02-08T12:44:34.266Z,4.47
2023-02-08T12:48:03.735Z,9.00
2023-02-08T12:51:23.147Z,8.60
2023-02-08T12:54:36.517Z,5.10
2023-02-08T12:57:46.227Z,13.20
2023-02-08T13:00:55.872Z,5.67
2023-02-08T13:04:06.172Z,3.27
2023-02-08T13:07:17.454Z,7.07
2023-02-08T13:10:30.718Z,9.10
2023-02-08T13:13:40.740Z,39.27
2023-02-08T13:16:51.805Z,10.80
2023-02-08T13:20:02.620Z,17.97
2023-02-08T13:23:19.449Z,8.50
2023-02-08T13:26:31.724Z,2.93
2023-02-08T13:29:39.224Z,27.97
2023-02-08T13:32:48.209Z,11.33
2023-02-08T13:35:55.755Z,7.83
2023-02-08T13:39:04.563Z,8.93
2023-02-08T13:42:22.791Z,6.63
2023-02-08T13:45:31.037Z,6.30
2023-02-08T13:48:47.456Z,11.87
2023-02-08T13:51:54.930Z,10.13
2023-02-08T13:55:36.046Z,17.73
2023-02-08T13:59:24.915Z,8.00
2023-02-08T14:02:31.738Z,6.03
2023-02-08T14:05:53.349Z,3.60
2023-02-08T14:09:08.335Z,18.30
2023-02-08T14:12:22.880Z,8.73
2023-02-08T14:15:33.535Z,17.43
2023-02-08T14:18:40.779Z,12.50
2023-02-08T14:21:49.676Z,14.30
2023-02-08T14:25:04.936Z,13.10
2023-02-08T14:28:27.297Z,4.30
2023-02-08T14:31:41.401Z,9.80
2023-02-08T14:34:48.052Z,5.33
2023-02-08T14:38:36.364Z,10.17
2023-02-08T14:42:00.296Z,2.60
2023-02-08T14:45:07.601Z,9.97
2023-02-08T14:48:25.068Z,6.97
2023-02-08T14:51:35.753Z,5.63
2023-02-08T14:54:49.961Z,6.73
2023-02-08T14:57:58.725Z,13.60
2023-02-08T15:01:14.537Z,10.43
2023-02-08T15:04:22.872Z,6.00
2023-02-08T15:07:36.730Z,5.53
2023-02-08T15:10:46.057Z,10.60
2023-02-08T15:13:54.235Z,25.97
2023-02-08T15:17:00.731Z,8.47
2023-02-08T15:20:22.001Z,3.83
2023-02-08T15:23:28.301Z,4.47
2023-02-08T15:26:35.115Z,3.33
2023-02-08T15:29:45.676Z,7.50
2023-02-08T15:32:52.100Z,9.47
2023-02-08T15:36:02.808Z,7.40
2023-02-08T15:39:16.517Z,7.47
2023-02-08T15:42:25.446Z,7.93
2023-02-08T15:45:31.812Z,8.77
2023-02-08T15:48:41.617Z,4.17
2023-02-08T15:51:51.131Z,11.60
2023-02-08T15:54:57.737Z,8.10
2023-02-08T15:58:08.590Z,9.27
2023-02-08T16:01:19.369Z,8.67
2023-02-08T16:04:27.130Z,6.03
2023-02-08T16:07:38.971Z,2.30
2023-02-08T16:10:49.033Z,4.70
2023-02-08T16:13:58.293Z,4.27
2023-02-08T16:17:04.613Z,6.27
2023-02-08T16:20:30.775Z,12.77
2023-02-08T16:23:40.713Z,9.97
2023-02-08T16:26:50.759Z,22.70
2023-02-08T16:29:57.834Z,13.17
2023-02-08T16:33:09.284Z,27.23
2023-02-08T16:36:24.037Z,38.83
2023-02-08T16:39:53.383Z,20.30
2023-02-08T16:43:17.783Z,22.30
2023-02-08T16:46:27.806Z,25.33
2023-02-08T16:49:33.999Z,33.87
2023-02-08T16:52:40.546Z,22.17
2023-02-08T16:55:48.359Z,19.27
2023-02-08T16:58:54.780Z,21.53
2023-02-08T17:02:01.100Z,25.97
2023-02-08T17:05:07.589Z,27.70
2023-02-08T17:08:17.392Z,15.87
2023-02-08T17:11:25.652Z,14.07
2023-02-08T17:14:31.982Z,5.67
2023-02-08T17:17:38.300Z,6.03
2023-02-08T17:20:45.376Z,4.40
2023-02-08T17:23:51.681Z,3.73
2023-02-08T17:26:59.262Z,17.27
2023-02-08T17:30:06.361Z,182.33
2023-02-08T17:33:18.313Z,50.77
2023-02-08T17:36:25.066Z,14.73
2023-02-08T17:39:31.667Z,31.23
2023-02-08T17:42:40.329Z,17.47
2023-02-08T17:45:47.077Z,25.27
2023-02-08T17:48:54.063Z,15.60
2023-02-08T17:52:00.409Z,44.77
2023-02-08T17:55:07.844Z,44.27
2023-02-08T17:58:15.797Z,22.77
2023-02-08T18:01:24.478Z,14.07
2023-02-08T18:04:30.827Z,21.17
2023-02-08T18:07:37.283Z,31.27
2023-02-08T18:10:43.798Z,22.90
2023-02-08T18:13:53.286Z,37.27
2023-02-08T18:16:59.974Z,18.17
2023-02-08T18:20:07.773Z,24.43
2023-02-08T18:23:14.426Z,23.83
2023-02-08T18:26:23.467Z,24.97
2023-02-08T18:29:31.398Z,32.33
2023-02-08T18:32:37.846Z,27.57
2023-02-08T18:35:49.698Z,30.93
2023-02-08T18:38:57.138Z,28.37
2023-02-08T18:42:03.503Z,32.73
2023-02-08T18:45:11.780Z,31.63
2023-02-08T18:48:18.113Z,69.33
2023-02-08T18:51:27.188Z,90.30
2023-02-08T18:54:33.266Z,154.10
2023-02-08T18:57:40.172Z,86.33
2023-02-08T19:00:47.806Z,32.83
2023-02-08T19:03:55.080Z,36.97
2023-02-08T19:07:02.310Z,44.53
2023-02-08T19:10:09.635Z,50.70
2023-02-08T19:13:16.866Z,48.70
2023-02-08T19:16:25.334Z,66.83
2023-02-08T19:19:32.119Z,29.23
2023-02-08T19:22:38.338Z,35.87
2023-02-08T19:25:45.382Z,55.47
2023-02-08T19:28:52.208Z,39.80
2023-02-08T19:32:00.362Z,56.90
2023-02-08T19:35:07.202Z,51.27
2023-02-08T19:38:13.877Z,54.43
2023-02-08T19:41:22.520Z,63.13
2023-02-08T19:44:30.761Z,51.10
2023-02-08T19:47:50.696Z,45.90
2023-02-08T19:50:59.559Z,62.30
2023-02-08T19:54:10.181Z,52.93
2023-02-08T19:57:16.975Z,33.40
2023-02-08T20:00:24.370Z,26.60
2023-02-08T20:03:32.303Z,17.97
2023-02-08T20:06:39.745Z,24.27
2023-02-08T20:09:46.142Z,42.20
2023-02-08T20:12:52.729Z,40.23
2023-02-08T20:16:00.886Z,35.20
2023-02-08T20:19:11.353Z,32.67
2023-02-08T20:22:17.750Z,58.90
2023-02-08T20:25:24.965Z,40.37
2023-02-08T20:28:31.536Z,47.17
2023-02-08T20:31:41.129Z,56.70
2023-02-08T20:34:59.057Z,35.13
2023-02-08T20:38:06.522Z,40.23
2023-02-08T20:41:15.396Z,47.97
2023-02-08T20:44:21.684Z,43.87
2023-02-08T20:47:29.991Z,35.77
2023-02-08T20:50:39.583Z,41.60
2023-02-08T20:53:47.583Z,36.40
2023-02-08T20:56:55.000Z,52.43
2023-02-08T21:00:01.226Z,31.30
2023-02-08T21:03:07.667Z,20.97
2023-02-08T21:06:17.392Z,68.23
2023-02-08T21:09:24.145Z,36.53
2023-02-08T21:12:31.624Z,22.47
2023-02-08T21:15:43.112Z,20.50
2023-02-08T21:18:49.440Z,24.50
2023-02-08T21:21:58.249Z,30.70
2023-02-08T21:25:04.616Z,33.43
2023-02-08T21:28:10.956Z,44.87
2023-02-08T21:31:19.921Z,54.13
2023-02-08T21:34:26.423Z,50.43
2023-02-08T21:37:36.010Z,28.30
2023-02-08T21:40:42.861Z,21.03
2023-02-08T21:43:50.392Z,27.47
2023-02-08T21:46:56.406Z,41.37
2023-02-08T21:50:20.074Z,29.60
2023-02-08T21:53:44.464Z,59.67
2023-02-08T21:56:50.542Z,22.57
2023-02-08T21:59:59.558Z,34.70
2023-02-08T22:03:05.846Z,42.33
2023-02-08T22:06:11.897Z,34.67
2023-02-08T22:09:20.714Z,66.97
2023-02-08T22:12:27.116Z,36.90
2023-02-08T22:15:35.158Z,35.63
2023-02-08T22:18:41.704Z,13.73
2023-02-08T22:21:47.890Z,17.37
2023-02-08T22:24:55.566Z,21.50
2023-02-08T22:28:01.859Z,34.13
2023-02-08T22:31:08.249Z,25.40
2023-02-08T22:34:14.291Z,25.93
2023-02-08T22:37:20.308Z,19.00
2023-02-08T22:40:28.261Z,11.83
2023-02-08T22:43:34.352Z,30.03
2023-02-08T22:46:40.389Z,20.97
2023-02-08T22:49:46.449Z,15.27
2023-02-08T22:52:52.241Z,21.53
2023-02-08T22:55:59.866Z,18.80
2023-02-08T22:59:05.892Z,12.90
2023-02-08T23:02:12.113Z,24.30
2023-02-08T23:05:18.528Z,27.53
2023-02-08T23:08:24.946Z,35.40
2023-02-08T23:11:32.611Z,24.73
2023-02-08T23:14:39.185Z,23.07
2023-02-08T23:17:45.501Z,18.07
2023-02-08T23:20:52.096Z,47.80
2023-02-08T23:23:58.453Z,28.43
2023-02-08T23:27:05.737Z,33.37
2023-02-08T23:30:13.503Z,26.67
2023-02-08T23:33:19.590Z,19.57
2023-02-08T23:36:25.779Z,16.13
2023-02-08T23:39:34.821Z,19.00
2023-02-08T23:42:42.413Z,23.77
2023-02-08T23:45:48.963Z,28.80
2023-02-08T23:48:55.570Z,6.53
2023-02-08T23:52:01.554Z,9.97
2023-02-08T23:55:08.634Z,9.90
2023-02-08T23:58:16.072Z,10.50
